PWSweather.com
Personal Weather Stations
Station Observations
OBSERWACJEMETEO
Skórowo, SkorowoPL 76-230

SkórowoSkorowoPL 76-230

Lat: 54.5030556, Lon: 17.5277777

Elevation: 77

Station Type: WH2080

http://obserwacjemeteo.eu/

High Low Average
Temperature 65.1°F18.4°C 46.2°F7.9°C 55.5°F13.1°C
Dew Point 53.8°F12.1°C 39.1°F3.9°C 46.4°F8.0°C
Winds 3.1 mph 5.0 kmh Calm Calm 1.0 mph NE1.6 kmh NE
Wind Gusts 6.0 mph9.7 kmh -- 2.0 mph3.2 kmh
Humidity 98% 46% 73%
Pressure 30.16 in1021.3 mb 30.06 in1017.9 mb -
Precipitation 0.21 in5.3 mm - -
Hour Temp Dew Point Humidity Winds Wind Gusts Pressure Precip Precip Rate Daily Precip Total
12:00 AM 47.7°F8.7°C 41.5°F5.3°C 79% 0.7 mph NE1.1 kmh NE 1.6 mph2.6 kmh 30.16 in1021.3 mb 0.00 in0.0 mm 0.00 in0.0 mm 0.00 in0.0 mm
12:10 AM 47.7°F8.7°C 41.1°F5.1°C 78% Calm Calm 1.6 mph2.6 kmh 30.15 in1021.0 mb 0.00 in0.0 mm 0.00 in0.0 mm 0.00 in0.0 mm
12:20 AM 47.5°F8.6°C 41.0°F5.0°C 78% Calm Calm 1.6 mph2.6 kmh 30.15 in1021.0 mb 0.00 in0.0 mm 0.00 in0.0 mm 0.00 in0.0 mm
12:30 AM 47.1°F8.4°C 40.6°F4.8°C 78% 0.7 mph NE1.1 kmh NE 2.2 mph3.5 kmh 30.15 in1021.0 mb 0.00 in0.0 mm 0.00 in0.0 mm 0.00 in0.0 mm
12:40 AM 46.9°F8.3°C 40.4°F4.7°C 78% 0.7 mph ENE1.1 kmh ENE 2.2 mph3.5 kmh 30.14 in1020.7 mb 0.00 in0.0 mm 0.00 in0.0 mm 0.00 in0.0 mm
12:50 AM 46.4°F8.0°C 40.2°F4.6°C 79% Calm Calm 1.6 mph2.6 kmh 30.14 in1020.7 mb 0.00 in0.0 mm 0.00 in0.0 mm 0.00 in0.0 mm
01:00 AM 46.8°F8.2°C 40.6°F4.8°C 79% 0.7 mph NNE1.1 kmh NNE 1.6 mph2.6 kmh 30.15 in1021.0 mb 0.00 in0.0 mm 0.00 in0.0 mm 0.00 in0.0 mm
01:10 AM 46.8°F8.2°C 40.6°F4.8°C 79% 0.7 mph NW1.1 kmh NW 1.6 mph2.6 kmh 30.14 in1020.7 mb 0.00 in0.0 mm 0.00 in0.0 mm 0.00 in0.0 mm
01:20 AM 47.1°F8.4°C 40.6°F4.8°C 78% 0.7 mph NE1.1 kmh NE 1.6 mph2.6 kmh 30.14 in1020.7 mb 0.00 in0.0 mm 0.00 in0.0 mm 0.00 in0.0 mm
01:30 AM 47.1°F8.4°C 40.3°F4.6°C 77% Calm Calm 1.6 mph2.6 kmh 30.14 in1020.7 mb 0.00 in0.0 mm 0.00 in0.0 mm 0.00 in0.0 mm
01:40 AM 47.1°F8.4°C 40.3°F4.6°C 77% Calm Calm -- 30.14 in1020.7 mb 0.00 in0.0 mm 0.00 in0.0 mm 0.00 in0.0 mm
01:50 AM 46.9°F8.3°C 40.4°F4.7°C 78% Calm Calm -- 30.14 in1020.7 mb 0.00 in0.0 mm 0.00 in0.0 mm 0.00 in0.0 mm
02:00 AM 46.6°F8.1°C 40.1°F4.5°C 78% Calm Calm -- 30.13 in1020.3 mb 0.00 in0.0 mm 0.00 in0.0 mm 0.00 in0.0 mm
02:10 AM 46.2°F7.9°C 40.1°F4.5°C 79% Calm Calm -- 30.13 in1020.3 mb 0.00 in0.0 mm 0.00 in0.0 mm 0.00 in0.0 mm
02:20 AM 46.4°F8.0°C 40.6°F4.8°C 80% Calm Calm -- 30.13 in1020.3 mb 0.00 in0.0 mm 0.00 in0.0 mm 0.00 in0.0 mm
02:30 AM 46.9°F8.3°C 41.1°F5.1°C 80% Calm Calm -- 30.13 in1020.3 mb 0.00 in0.0 mm 0.00 in0.0 mm 0.00 in0.0 mm
02:40 AM 47.5°F8.6°C 40.6°F4.8°C 77% 1.6 mph NE2.6 kmh NE 2.2 mph3.5 kmh 30.13 in1020.3 mb 0.00 in0.0 mm 0.00 in0.0 mm 0.00 in0.0 mm
02:50 AM 47.5°F8.6°C 40.3°F4.6°C 76% 1.6 mph NE2.6 kmh NE 2.2 mph3.5 kmh 30.13 in1020.3 mb 0.00 in0.0 mm 0.00 in0.0 mm 0.00 in0.0 mm
03:00 AM 47.3°F8.5°C 40.1°F4.5°C 76% 0.7 mph NE1.1 kmh NE 2.2 mph3.5 kmh 30.12 in1020.0 mb 0.00 in0.0 mm 0.00 in0.0 mm 0.00 in0.0 mm
03:10 AM 47.3°F8.5°C 40.1°F4.5°C 76% Calm Calm 1.6 mph2.6 kmh 30.12 in1020.0 mb 0.00 in0.0 mm 0.00 in0.0 mm 0.00 in0.0 mm
03:20 AM 47.3°F8.5°C 39.8°F4.3°C 75% 0.7 mph NE1.1 kmh NE 2.2 mph3.5 kmh 30.13 in1020.3 mb 0.00 in0.0 mm 0.00 in0.0 mm 0.00 in0.0 mm
03:30 AM 46.9°F8.3°C 39.4°F4.1°C 75% Calm Calm 2.2 mph3.5 kmh 30.13 in1020.3 mb 0.00 in0.0 mm 0.00 in0.0 mm 0.00 in0.0 mm
03:40 AM 46.6°F8.1°C 39.4°F4.1°C 76% Calm Calm 1.6 mph2.6 kmh 30.13 in1020.3 mb 0.00 in0.0 mm 0.00 in0.0 mm 0.00 in0.0 mm
03:50 AM 46.8°F8.2°C 39.6°F4.2°C 76% Calm Calm 1.6 mph2.6 kmh 30.13 in1020.3 mb 0.00 in0.0 mm 0.00 in0.0 mm 0.00 in0.0 mm
04:00 AM 46.8°F8.2°C 39.6°F4.2°C 76% Calm Calm 1.6 mph2.6 kmh 30.12 in1020.0 mb 0.00 in0.0 mm 0.00 in0.0 mm 0.00 in0.0 mm
04:10 AM 46.9°F8.3°C 39.8°F4.3°C 76% 0.7 mph E1.1 kmh E 2.2 mph3.5 kmh 30.12 in1020.0 mb 0.00 in0.0 mm 0.00 in0.0 mm 0.00 in0.0 mm
04:20 AM 47.1°F8.4°C 39.6°F4.2°C 75% 0.7 mph NE1.1 kmh NE 2.2 mph3.5 kmh 30.13 in1020.3 mb 0.00 in0.0 mm 0.00 in0.0 mm 0.00 in0.0 mm
04:30 AM 46.9°F8.3°C 39.4°F4.1°C 75% 0.7 mph ENE1.1 kmh ENE 2.2 mph3.5 kmh 30.12 in1020.0 mb 0.00 in0.0 mm 0.00 in0.0 mm 0.00 in0.0 mm
04:40 AM 46.9°F8.3°C 39.4°F4.1°C 75% 1.6 mph E2.6 kmh E 2.2 mph3.5 kmh 30.12 in1020.0 mb 0.00 in0.0 mm 0.00 in0.0 mm 0.00 in0.0 mm
04:50 AM 46.9°F8.3°C 39.1°F3.9°C 74% 0.7 mph NNE1.1 kmh NNE 2.2 mph3.5 kmh 30.12 in1020.0 mb 0.00 in0.0 mm 0.00 in0.0 mm 0.00 in0.0 mm
05:00 AM 46.6°F8.1°C 39.1°F3.9°C 75% Calm Calm 1.6 mph2.6 kmh 30.13 in1020.3 mb 0.00 in0.0 mm 0.00 in0.0 mm 0.00 in0.0 mm
05:10 AM 46.8°F8.2°C 39.3°F4.1°C 75% 0.7 mph N1.1 kmh N 1.6 mph2.6 kmh 30.12 in1020.0 mb 0.00 in0.0 mm 0.00 in0.0 mm 0.00 in0.0 mm
05:20 AM 47.3°F8.5°C 39.4°F4.1°C 74% 0.7 mph NNE1.1 kmh NNE 1.6 mph2.6 kmh 30.12 in1020.0 mb 0.00 in0.0 mm 0.00 in0.0 mm 0.00 in0.0 mm
05:30 AM 47.5°F8.6°C 39.3°F4.1°C 73% Calm Calm 1.6 mph2.6 kmh 30.11 in1019.6 mb 0.00 in0.0 mm 0.00 in0.0 mm 0.00 in0.0 mm
05:40 AM 47.8°F8.8°C 39.6°F4.2°C 73% 0.7 mph NE1.1 kmh NE 1.6 mph2.6 kmh 30.12 in1020.0 mb 0.00 in0.0 mm 0.00 in0.0 mm 0.00 in0.0 mm
05:50 AM 48.4°F9.1°C 40.1°F4.5°C 73% 0.7 mph N1.1 kmh N 1.6 mph2.6 kmh 30.11 in1019.6 mb 0.00 in0.0 mm 0.00 in0.0 mm 0.00 in0.0 mm
06:00 AM 49.3°F9.6°C 41.0°F5.0°C 73% Calm Calm 2.2 mph3.5 kmh 30.12 in1020.0 mb 0.00 in0.0 mm 0.00 in0.0 mm 0.00 in0.0 mm
06:10 AM 50.0°F10.0°C 41.3°F5.2°C 72% Calm Calm 1.6 mph2.6 kmh 30.11 in1019.6 mb 0.00 in0.0 mm 0.00 in0.0 mm 0.00 in0.0 mm
06:20 AM 50.4°F10.2°C 41.7°F5.4°C 72% Calm Calm 0.7 mph1.1 kmh 30.12 in1020.0 mb 0.00 in0.0 mm 0.00 in0.0 mm 0.00 in0.0 mm
06:30 AM 50.7°F10.4°C 42.0°F5.6°C 72% 0.7 mph NE1.1 kmh NE 1.6 mph2.6 kmh 30.11 in1019.6 mb 0.00 in0.0 mm 0.00 in0.0 mm 0.00 in0.0 mm
06:40 AM 51.1°F10.6°C 42.4°F5.8°C 72% Calm Calm 1.6 mph2.6 kmh 30.11 in1019.6 mb 0.00 in0.0 mm 0.00 in0.0 mm 0.00 in0.0 mm
06:50 AM 51.6°F10.9°C 42.9°F6.1°C 72% Calm Calm 1.6 mph2.6 kmh 30.12 in1020.0 mb 0.00 in0.0 mm 0.00 in0.0 mm 0.00 in0.0 mm
07:00 AM 52.9°F11.6°C 44.1°F6.7°C 72% 0.7 mph NNE1.1 kmh NNE 2.2 mph3.5 kmh 30.12 in1020.0 mb 0.00 in0.0 mm 0.00 in0.0 mm 0.00 in0.0 mm
07:10 AM 54.3°F12.4°C 44.8°F7.1°C 70% 3.1 mph NNE5.0 kmh NNE 3.8 mph6.1 kmh 30.12 in1020.0 mb 0.00 in0.0 mm 0.00 in0.0 mm 0.00 in0.0 mm
07:20 AM 55.4°F13.0°C 43.4°F6.3°C 64% 1.6 mph NNE2.6 kmh NNE 3.8 mph6.1 kmh 30.12 in1020.0 mb 0.00 in0.0 mm 0.00 in0.0 mm 0.00 in0.0 mm
07:30 AM 55.8°F13.2°C 42.9°F6.1°C 62% 2.2 mph NE3.5 kmh NE 4.5 mph7.2 kmh 30.12 in1020.0 mb 0.00 in0.0 mm 0.00 in0.0 mm 0.00 in0.0 mm
07:40 AM 56.3°F13.5°C 43.5°F6.4°C 62% 1.6 mph ENE2.6 kmh ENE 5.4 mph8.7 kmh 30.12 in1020.0 mb 0.00 in0.0 mm 0.00 in0.0 mm 0.00 in0.0 mm
07:50 AM 57.4°F14.1°C 44.1°F6.7°C 61% 1.6 mph ENE2.6 kmh ENE 4.5 mph7.2 kmh 30.13 in1020.3 mb 0.00 in0.0 mm 0.00 in0.0 mm 0.00 in0.0 mm
08:00 AM 60.3°F15.7°C 45.9°F7.7°C 59% 1.6 mph NNE2.6 kmh NNE 3.8 mph6.1 kmh 30.11 in1019.6 mb 0.00 in0.0 mm 0.00 in0.0 mm 0.00 in0.0 mm
08:10 AM 62.8°F17.1°C 46.4°F8.0°C 55% 1.6 mph E2.6 kmh E 3.1 mph5.0 kmh 30.12 in1020.0 mb 0.00 in0.0 mm 0.00 in0.0 mm 0.00 in0.0 mm
08:20 AM 63.1°F17.3°C 45.7°F7.6°C 53% 1.6 mph E2.6 kmh E 4.5 mph7.2 kmh 30.12 in1020.0 mb 0.00 in0.0 mm 0.00 in0.0 mm 0.00 in0.0 mm
08:30 AM 63.0°F17.2°C 46.1°F7.8°C 54% 2.2 mph E3.5 kmh E 4.5 mph7.2 kmh 30.11 in1019.6 mb 0.00 in0.0 mm 0.00 in0.0 mm 0.00 in0.0 mm
08:40 AM 65.1°F18.4°C 44.4°F6.9°C 47% 2.2 mph NE3.5 kmh NE 5.4 mph8.7 kmh 30.12 in1020.0 mb 0.00 in0.0 mm 0.00 in0.0 mm 0.00 in0.0 mm
08:50 AM 63.3°F17.4°C 44.4°F6.9°C 50% 1.6 mph NE2.6 kmh NE 4.5 mph7.2 kmh 30.12 in1020.0 mb 0.00 in0.0 mm 0.00 in0.0 mm 0.00 in0.0 mm
09:00 AM 63.9°F17.7°C 44.9°F7.2°C 50% 1.6 mph E2.6 kmh E 6.0 mph9.7 kmh 30.12 in1020.0 mb 0.00 in0.0 mm 0.00 in0.0 mm 0.00 in0.0 mm
09:10 AM 62.8°F17.1°C 44.4°F6.9°C 51% 1.6 mph SSE2.6 kmh SSE 4.5 mph7.2 kmh 30.12 in1020.0 mb 0.00 in0.0 mm 0.00 in0.0 mm 0.00 in0.0 mm
09:20 AM 62.6°F17.0°C 45.2°F7.3°C 53% 1.6 mph NNE2.6 kmh NNE 2.2 mph3.5 kmh 30.12 in1020.0 mb 0.00 in0.0 mm 0.00 in0.0 mm 0.00 in0.0 mm
09:30 AM 62.8°F17.1°C 45.9°F7.7°C 54% 0.7 mph N1.1 kmh N 3.8 mph6.1 kmh 30.12 in1020.0 mb 0.00 in0.0 mm 0.00 in0.0 mm 0.00 in0.0 mm
09:40 AM 63.1°F17.3°C 45.7°F7.6°C 53% 0.7 mph NE1.1 kmh NE 3.8 mph6.1 kmh 30.11 in1019.6 mb 0.00 in0.0 mm 0.00 in0.0 mm 0.00 in0.0 mm
09:50 AM 64.4°F18.0°C 43.2°F6.2°C 46% 2.2 mph NE3.5 kmh NE 3.8 mph6.1 kmh 30.11 in1019.6 mb 0.00 in0.0 mm 0.00 in0.0 mm 0.00 in0.0 mm
10:00 AM 63.7°F17.6°C 43.1°F6.2°C 47% 1.6 mph N2.6 kmh N 5.4 mph8.7 kmh 30.12 in1020.0 mb 0.00 in0.0 mm 0.00 in0.0 mm 0.00 in0.0 mm
10:10 AM 63.5°F17.5°C 43.5°F6.4°C 48% 2.2 mph NE3.5 kmh NE 4.5 mph7.2 kmh 30.11 in1019.6 mb 0.00 in0.0 mm 0.00 in0.0 mm 0.00 in0.0 mm
10:20 AM 63.7°F17.6°C 44.7°F7.1°C 50% 1.6 mph NNE2.6 kmh NNE 4.5 mph7.2 kmh 30.12 in1020.0 mb 0.00 in0.0 mm 0.00 in0.0 mm 0.00 in0.0 mm
10:30 AM 64.2°F17.9°C 45.2°F7.3°C 50% 1.6 mph NE2.6 kmh NE 3.8 mph6.1 kmh 30.12 in1020.0 mb 0.00 in0.0 mm 0.00 in0.0 mm 0.00 in0.0 mm
10:40 AM 64.4°F18.0°C 44.8°F7.1°C 49% 1.6 mph E2.6 kmh E 6.0 mph9.7 kmh 30.11 in1019.6 mb 0.00 in0.0 mm 0.00 in0.0 mm 0.00 in0.0 mm
10:50 AM 64.6°F18.1°C 43.9°F6.6°C 47% 3.1 mph NE5.0 kmh NE 4.5 mph7.2 kmh 30.11 in1019.6 mb 0.00 in0.0 mm 0.00 in0.0 mm 0.00 in0.0 mm
11:00 AM 63.9°F17.7°C 43.3°F6.3°C 47% 3.1 mph NNE5.0 kmh NNE 6.0 mph9.7 kmh 30.11 in1019.6 mb 0.00 in0.0 mm 0.00 in0.0 mm 0.00 in0.0 mm
11:10 AM 63.9°F17.7°C 44.3°F6.8°C 49% 1.6 mph NNE2.6 kmh NNE 5.4 mph8.7 kmh 30.11 in1019.6 mb 0.00 in0.0 mm 0.00 in0.0 mm 0.00 in0.0 mm
11:20 AM 63.7°F17.6°C 44.2°F6.8°C 49% 1.6 mph NE2.6 kmh NE 3.8 mph6.1 kmh 30.11 in1019.6 mb 0.00 in0.0 mm 0.00 in0.0 mm 0.00 in0.0 mm
11:30 AM 63.7°F17.6°C 43.6°F6.4°C 48% 2.2 mph E3.5 kmh E 3.8 mph6.1 kmh 30.11 in1019.6 mb 0.00 in0.0 mm 0.00 in0.0 mm 0.00 in0.0 mm
11:40 AM 63.3°F17.4°C 45.4°F7.4°C 52% 2.2 mph NE3.5 kmh NE 3.8 mph6.1 kmh 30.12 in1020.0 mb 0.00 in0.0 mm 0.00 in0.0 mm 0.00 in0.0 mm
11:50 AM 63.3°F17.4°C 46.4°F8.0°C 54% 0.7 mph NNE1.1 kmh NNE 3.8 mph6.1 kmh 30.12 in1020.0 mb 0.00 in0.0 mm 0.00 in0.0 mm 0.00 in0.0 mm
12:00 PM 63.0°F17.2°C 45.6°F7.6°C 53% 0.7 mph NNE1.1 kmh NNE 3.1 mph5.0 kmh 30.12 in1020.0 mb 0.00 in0.0 mm 0.00 in0.0 mm 0.00 in0.0 mm
12:10 PM 62.8°F17.1°C 45.9°F7.7°C 54% 1.6 mph NNE2.6 kmh NNE 3.1 mph5.0 kmh 30.12 in1020.0 mb 0.00 in0.0 mm 0.00 in0.0 mm 0.00 in0.0 mm
12:20 PM 63.0°F17.2°C 45.6°F7.6°C 53% 1.6 mph N2.6 kmh N 3.1 mph5.0 kmh 30.11 in1019.6 mb 0.00 in0.0 mm 0.00 in0.0 mm 0.00 in0.0 mm
12:30 PM 63.3°F17.4°C 47.4°F8.6°C 56% 1.6 mph N2.6 kmh N 3.1 mph5.0 kmh 30.12 in1020.0 mb 0.00 in0.0 mm 0.00 in0.0 mm 0.00 in0.0 mm
12:40 PM 63.0°F17.2°C 47.5°F8.6°C 57% 1.6 mph E2.6 kmh E 3.8 mph6.1 kmh 30.12 in1020.0 mb 0.00 in0.0 mm 0.00 in0.0 mm 0.00 in0.0 mm
12:50 PM 62.6°F17.0°C 48.5°F9.2°C 60% 1.6 mph NE2.6 kmh NE 3.8 mph6.1 kmh 30.12 in1020.0 mb 0.00 in0.0 mm 0.00 in0.0 mm 0.00 in0.0 mm
01:00 PM 62.2°F16.8°C 48.2°F9.0°C 60% 1.6 mph NE2.6 kmh NE 3.1 mph5.0 kmh 30.12 in1020.0 mb 0.00 in0.0 mm 0.00 in0.0 mm 0.00 in0.0 mm
01:10 PM 62.2°F16.8°C 48.2°F9.0°C 60% 0.7 mph NE1.1 kmh NE 3.1 mph5.0 kmh 30.12 in1020.0 mb 0.00 in0.0 mm 0.00 in0.0 mm 0.00 in0.0 mm
01:20 PM 62.4°F16.9°C 48.8°F9.3°C 61% 0.7 mph ENE1.1 kmh ENE 2.2 mph3.5 kmh 30.11 in1019.6 mb 0.00 in0.0 mm 0.00 in0.0 mm 0.00 in0.0 mm
01:30 PM 62.4°F16.9°C 48.8°F9.3°C 61% 1.6 mph NE2.6 kmh NE 3.1 mph5.0 kmh 30.11 in1019.6 mb 0.00 in0.0 mm 0.00 in0.0 mm 0.00 in0.0 mm
01:40 PM 62.4°F16.9°C 48.4°F9.1°C 60% 1.6 mph NNE2.6 kmh NNE 3.1 mph5.0 kmh 30.11 in1019.6 mb 0.00 in0.0 mm 0.00 in0.0 mm 0.00 in0.0 mm
01:50 PM 61.9°F16.6°C 47.9°F8.8°C 60% 1.6 mph NE2.6 kmh NE 3.8 mph6.1 kmh 30.11 in1019.6 mb 0.00 in0.0 mm 0.00 in0.0 mm 0.00 in0.0 mm
02:00 PM 61.7°F16.5°C 48.6°F9.2°C 62% 0.7 mph NE1.1 kmh NE 3.1 mph5.0 kmh 30.11 in1019.6 mb 0.00 in0.0 mm 0.00 in0.0 mm 0.00 in0.0 mm
02:10 PM 61.7°F16.5°C 49.0°F9.4°C 63% 1.6 mph ENE2.6 kmh ENE 2.2 mph3.5 kmh 30.11 in1019.6 mb 0.00 in0.0 mm 0.00 in0.0 mm 0.00 in0.0 mm
02:20 PM 61.3°F16.3°C 48.7°F9.3°C 63% 0.7 mph NE1.1 kmh NE 2.2 mph3.5 kmh 30.11 in1019.6 mb 0.00 in0.0 mm 0.00 in0.0 mm 0.00 in0.0 mm
02:30 PM 61.3°F16.3°C 49.1°F9.5°C 64% Calm Calm 2.2 mph3.5 kmh 30.11 in1019.6 mb 0.00 in0.0 mm 0.00 in0.0 mm 0.00 in0.0 mm
02:40 PM 61.3°F16.3°C 49.9°F9.9°C 66% Calm Calm 1.6 mph2.6 kmh 30.11 in1019.6 mb 0.00 in0.0 mm 0.00 in0.0 mm 0.00 in0.0 mm
02:50 PM 61.5°F16.4°C 50.9°F10.5°C 68% Calm Calm 0.7 mph1.1 kmh 30.11 in1019.6 mb 0.00 in0.0 mm 0.00 in0.0 mm 0.00 in0.0 mm
03:00 PM 61.5°F16.4°C 51.7°F10.9°C 70% Calm Calm 1.6 mph2.6 kmh 30.11 in1019.6 mb 0.00 in0.0 mm 0.00 in0.0 mm 0.00 in0.0 mm
03:10 PM 61.2°F16.2°C 51.3°F10.7°C 70% 1.6 mph NW2.6 kmh NW 3.1 mph5.0 kmh 30.11 in1019.6 mb 0.00 in0.0 mm 0.00 in0.0 mm 0.00 in0.0 mm
03:20 PM 60.3°F15.7°C 50.1°F10.1°C 69% 3.1 mph NNE5.0 kmh NNE 4.5 mph7.2 kmh 30.11 in1019.6 mb 0.00 in0.0 mm 0.00 in0.0 mm 0.00 in0.0 mm
03:30 PM 59.7°F15.4°C 49.9°F9.9°C 70% 1.6 mph SSW2.6 kmh SSW 4.5 mph7.2 kmh 30.11 in1019.6 mb 0.00 in0.0 mm 0.00 in0.0 mm 0.00 in0.0 mm
03:40 PM 59.4°F15.2°C 50.0°F10.0°C 71% Calm Calm 2.2 mph3.5 kmh 30.10 in1019.3 mb 0.00 in0.0 mm 0.00 in0.0 mm 0.00 in0.0 mm
03:50 PM 59.2°F15.1°C 50.2°F10.1°C 72% Calm Calm 3.1 mph5.0 kmh 30.10 in1019.3 mb 0.00 in0.0 mm 0.00 in0.0 mm 0.00 in0.0 mm
04:00 PM 58.6°F14.8°C 50.0°F10.0°C 73% 0.7 mph WSW1.1 kmh WSW 2.2 mph3.5 kmh 30.10 in1019.3 mb 0.00 in0.0 mm 0.00 in0.0 mm 0.00 in0.0 mm
04:10 PM 58.3°F14.6°C 50.0°F10.0°C 74% 1.6 mph W2.6 kmh W 2.2 mph3.5 kmh 30.09 in1019.0 mb 0.00 in0.0 mm 0.00 in0.0 mm 0.00 in0.0 mm
04:20 PM 58.1°F14.5°C 50.2°F10.1°C 75% Calm Calm 2.2 mph3.5 kmh 30.10 in1019.3 mb 0.00 in0.0 mm 0.00 in0.0 mm 0.00 in0.0 mm
04:30 PM 57.9°F14.4°C 50.8°F10.4°C 77% 0.7 mph NW1.1 kmh NW 2.2 mph3.5 kmh 30.11 in1019.6 mb 0.00 in0.0 mm 0.00 in0.0 mm 0.00 in0.0 mm
04:40 PM 57.6°F14.2°C 50.8°F10.4°C 78% 0.7 mph NW1.1 kmh NW 2.2 mph3.5 kmh 30.11 in1019.6 mb 0.00 in0.0 mm 0.00 in0.0 mm 0.00 in0.0 mm
04:50 PM 57.6°F14.2°C 50.8°F10.4°C 78% Calm Calm 1.6 mph2.6 kmh 30.11 in1019.6 mb 0.00 in0.0 mm 0.00 in0.0 mm 0.00 in0.0 mm
05:00 PM 57.4°F14.1°C 50.9°F10.5°C 79% Calm Calm 1.6 mph2.6 kmh 30.11 in1019.6 mb 0.00 in0.0 mm 0.00 in0.0 mm 0.00 in0.0 mm
05:10 PM 57.2°F14.0°C 51.1°F10.6°C 80% Calm Calm 1.6 mph2.6 kmh 30.11 in1019.6 mb 0.00 in0.0 mm 0.00 in0.0 mm 0.00 in0.0 mm
05:20 PM 57.0°F13.9°C 50.9°F10.5°C 80% Calm Calm 1.6 mph2.6 kmh 30.11 in1019.6 mb 0.00 in0.0 mm 0.00 in0.0 mm 0.00 in0.0 mm
05:30 PM 56.8°F13.8°C 50.7°F10.4°C 80% 0.7 mph N1.1 kmh N 2.2 mph3.5 kmh 30.11 in1019.6 mb 0.00 in0.0 mm 0.00 in0.0 mm 0.00 in0.0 mm
05:40 PM 56.7°F13.7°C 50.6°F10.3°C 80% Calm Calm 1.6 mph2.6 kmh 30.11 in1019.6 mb 0.00 in0.0 mm 0.00 in0.0 mm 0.00 in0.0 mm
05:50 PM 56.5°F13.6°C 50.4°F10.2°C 80% Calm Calm 0.7 mph1.1 kmh 30.11 in1019.6 mb 0.00 in0.0 mm 0.00 in0.0 mm 0.00 in0.0 mm
06:00 PM 56.1°F13.4°C 50.4°F10.2°C 81% Calm Calm 1.6 mph2.6 kmh 30.11 in1019.6 mb 0.00 in0.0 mm 0.00 in0.0 mm 0.00 in0.0 mm
06:10 PM 55.9°F13.3°C 50.5°F10.3°C 82% 0.7 mph WSW1.1 kmh WSW 1.6 mph2.6 kmh 30.11 in1019.6 mb 0.00 in0.0 mm 0.00 in0.0 mm 0.00 in0.0 mm
06:20 PM 55.6°F13.1°C 50.2°F10.1°C 82% Calm Calm 1.6 mph2.6 kmh 30.11 in1019.6 mb 0.00 in0.0 mm 0.00 in0.0 mm 0.00 in0.0 mm
06:30 PM 55.4°F13.0°C 50.3°F10.2°C 83% Calm Calm -- 30.11 in1019.6 mb 0.00 in0.0 mm 0.00 in0.0 mm 0.00 in0.0 mm
06:40 PM 55.4°F13.0°C 50.7°F10.4°C 84% Calm Calm -- 30.10 in1019.3 mb 0.00 in0.0 mm 0.00 in0.0 mm 0.00 in0.0 mm
06:50 PM 55.2°F12.9°C 50.8°F10.4°C 85% Calm Calm -- 30.11 in1019.6 mb 0.00 in0.0 mm 0.00 in0.0 mm 0.00 in0.0 mm
07:00 PM 55.2°F12.9°C 50.8°F10.4°C 85% Calm Calm -- 30.11 in1019.6 mb 0.00 in0.0 mm 0.00 in0.0 mm 0.00 in0.0 mm
07:10 PM 55.0°F12.8°C 50.9°F10.5°C 86% Calm Calm -- 30.11 in1019.6 mb 0.01 in0.3 mm 0.06 in1.5 mm 0.01 in0.3 mm
07:20 PM 54.7°F12.6°C 50.9°F10.5°C 87% Calm Calm -- 30.11 in1019.6 mb 0.01 in0.3 mm 0.00 in0.0 mm 0.01 in0.3 mm
07:30 PM 54.7°F12.6°C 50.9°F10.5°C 87% Calm Calm -- 30.11 in1019.6 mb 0.01 in0.3 mm 0.00 in0.0 mm 0.01 in0.3 mm
07:40 PM 54.5°F12.5°C 51.0°F10.6°C 88% Calm Calm -- 30.11 in1019.6 mb 0.01 in0.3 mm 0.00 in0.0 mm 0.01 in0.3 mm
07:50 PM 54.5°F12.5°C 51.3°F10.7°C 89% Calm Calm -- 30.11 in1019.6 mb 0.01 in0.3 mm 0.00 in0.0 mm 0.01 in0.3 mm
08:00 PM 54.3°F12.4°C 52.1°F11.2°C 92% Calm Calm -- 30.10 in1019.3 mb 0.01 in0.3 mm 0.00 in0.0 mm 0.01 in0.3 mm
08:10 PM 54.3°F12.4°C 52.3°F11.3°C 93% Calm Calm -- 30.11 in1019.6 mb 0.00 in0.0 mm 0.00 in0.0 mm 0.01 in0.3 mm
08:20 PM 54.3°F12.4°C 52.3°F11.3°C 93% Calm Calm -- 30.11 in1019.6 mb 0.00 in0.0 mm 0.00 in0.0 mm 0.01 in0.3 mm
08:30 PM 54.3°F12.4°C 52.3°F11.3°C 93% Calm Calm -- 30.10 in1019.3 mb 0.00 in0.0 mm 0.00 in0.0 mm 0.01 in0.3 mm
08:40 PM 54.3°F12.4°C 52.6°F11.4°C 94% Calm Calm -- 30.10 in1019.3 mb 0.00 in0.0 mm 0.00 in0.0 mm 0.01 in0.3 mm
08:50 PM 54.3°F12.4°C 52.6°F11.4°C 94% Calm Calm -- 30.10 in1019.3 mb 0.00 in0.0 mm 0.00 in0.0 mm 0.01 in0.3 mm
09:00 PM 54.3°F12.4°C 52.6°F11.4°C 94% Calm Calm -- 30.10 in1019.3 mb 0.00 in0.0 mm 0.00 in0.0 mm 0.01 in0.3 mm
09:10 PM 54.1°F12.3°C 52.7°F11.5°C 95% Calm Calm -- 30.10 in1019.3 mb 0.00 in0.0 mm 0.00 in0.0 mm 0.01 in0.3 mm
09:20 PM 54.1°F12.3°C 52.7°F11.5°C 95% Calm Calm -- 30.10 in1019.3 mb 0.00 in0.0 mm 0.00 in0.0 mm 0.01 in0.3 mm
09:30 PM 54.1°F12.3°C 52.7°F11.5°C 95% Calm Calm -- 30.10 in1019.3 mb 0.00 in0.0 mm 0.00 in0.0 mm 0.01 in0.3 mm
09:40 PM 54.1°F12.3°C 52.7°F11.5°C 95% Calm Calm -- 30.09 in1019.0 mb 0.00 in0.0 mm 0.00 in0.0 mm 0.01 in0.3 mm
09:50 PM 54.1°F12.3°C 52.7°F11.5°C 95% Calm Calm -- 30.09 in1019.0 mb 0.00 in0.0 mm 0.00 in0.0 mm 0.01 in0.3 mm
10:00 PM 54.3°F12.4°C 53.2°F11.8°C 96% Calm Calm -- 30.10 in1019.3 mb 0.01 in0.3 mm 0.01 in0.3 mm 0.02 in0.5 mm
10:10 PM 54.3°F12.4°C 53.2°F11.8°C 96% Calm Calm -- 30.09 in1019.0 mb 0.01 in0.3 mm 0.00 in0.0 mm 0.02 in0.5 mm
10:20 PM 54.3°F12.4°C 53.2°F11.8°C 96% Calm Calm -- 30.09 in1019.0 mb 0.05 in1.3 mm 0.24 in6.1 mm 0.06 in1.5 mm
10:30 PM 54.3°F12.4°C 53.2°F11.8°C 96% 0.7 mph SW1.1 kmh SW 1.6 mph2.6 kmh 30.08 in1018.6 mb 0.07 in1.8 mm 0.12 in3.0 mm 0.08 in2.0 mm
10:40 PM 54.1°F12.3°C 53.0°F11.7°C 96% Calm Calm 1.6 mph2.6 kmh 30.08 in1018.6 mb 0.08 in2.0 mm 0.06 in1.5 mm 0.09 in2.3 mm
10:50 PM 54.1°F12.3°C 53.0°F11.7°C 96% Calm Calm 0.7 mph1.1 kmh 30.08 in1018.6 mb 0.12 in3.0 mm 0.24 in6.1 mm 0.13 in3.3 mm
11:00 PM 54.1°F12.3°C 53.3°F11.8°C 97% Calm Calm -- 30.07 in1018.3 mb 0.14 in3.6 mm 0.02 in0.5 mm 0.15 in3.8 mm
11:10 PM 54.1°F12.3°C 53.3°F11.8°C 97% Calm Calm 0.7 mph1.1 kmh 30.07 in1018.3 mb 0.20 in5.1 mm 0.36 in9.1 mm 0.06 in1.5 mm
11:20 PM 54.1°F12.3°C 53.3°F11.8°C 97% Calm Calm 0.7 mph1.1 kmh 30.07 in1018.3 mb 0.21 in5.3 mm 0.06 in1.5 mm 0.11 in2.8 mm
11:30 PM 54.1°F12.3°C 53.3°F11.8°C 97% Calm Calm 1.6 mph2.6 kmh 30.07 in1018.3 mb 0.24 in6.1 mm 0.18 in4.6 mm 0.15 in3.8 mm
11:40 PM 54.3°F12.4°C 53.8°F12.1°C 98% Calm Calm 1.6 mph2.6 kmh 30.06 in1017.9 mb 0.25 in6.4 mm 0.06 in1.5 mm 0.18 in4.6 mm
11:50 PM 54.5°F12.5°C 53.1°F11.7°C 95% Calm Calm 1.6 mph2.6 kmh 30.06 in1017.9 mb 0.25 in6.4 mm 0.00 in0.0 mm 0.21 in5.3 mm